createdAt,value
2024-05-09T00:00:31.660Z,14.63
2024-05-09T00:03:06.015Z,15.38
2024-05-09T00:05:35.977Z,16.08
2024-05-09T00:08:03.794Z,15.60
2024-05-09T00:10:36.331Z,16.40
2024-05-09T00:13:05.581Z,14.98
2024-05-09T00:15:32.398Z,15.48
2024-05-09T00:17:59.149Z,18.98
2024-05-09T00:20:33.680Z,18.10
2024-05-09T00:23:08.303Z,18.13
2024-05-09T00:25:35.628Z,19.77
2024-05-09T00:28:02.481Z,20.63
2024-05-09T00:30:34.380Z,18.58
2024-05-09T00:33:04.398Z,18.93
2024-05-09T00:35:31.869Z,18.35
2024-05-09T00:37:58.713Z,17.67
2024-05-09T00:40:38.971Z,19.98
2024-05-09T00:43:08.280Z,19.77
2024-05-09T00:45:35.155Z,17.87
2024-05-09T00:48:04.729Z,18.52
2024-05-09T00:50:36.460Z,18.42
2024-05-09T00:53:05.162Z,17.55
2024-05-09T00:55:36.217Z,19.50
2024-05-09T00:58:03.665Z,19.10
2024-05-09T01:00:35.913Z,19.27
2024-05-09T01:03:06.679Z,18.55
2024-05-09T01:05:33.667Z,17.77
2024-05-09T01:08:00.627Z,18.60
2024-05-09T01:10:33.766Z,19.03
2024-05-09T01:13:06.053Z,17.77
2024-05-09T01:15:33.813Z,18.98
2024-05-09T01:18:01.726Z,20.25
2024-05-09T01:20:39.134Z,19.40
2024-05-09T01:23:12.764Z,21.07
2024-05-09T01:25:40.850Z,19.02
2024-05-09T01:28:07.778Z,18.17
2024-05-09T01:30:36.950Z,17.80
2024-05-09T01:33:06.835Z,19.17
2024-05-09T01:35:35.403Z,19.33
2024-05-09T01:38:02.358Z,18.92
2024-05-09T01:40:37.541Z,18.45
2024-05-09T01:43:06.894Z,18.42
2024-05-09T01:45:33.911Z,18.58
2024-05-09T01:48:01.142Z,18.60
2024-05-09T01:50:37.697Z,19.38
2024-05-09T01:53:08.338Z,18.08
2024-05-09T01:55:37.903Z,20.33
2024-05-09T01:58:05.003Z,18.85
2024-05-09T02:00:38.807Z,20.00
2024-05-09T02:03:12.429Z,18.05
2024-05-09T02:05:42.033Z,19.33
2024-05-09T02:08:12.890Z,20.17
2024-05-09T02:10:42.627Z,18.65
2024-05-09T02:13:09.548Z,20.37
2024-05-09T02:15:36.421Z,20.27
2024-05-09T02:18:03.542Z,20.20
2024-05-09T02:20:35.988Z,20.40
2024-05-09T02:23:04.867Z,21.50
2024-05-09T02:25:32.289Z,21.70
2024-05-09T02:28:02.068Z,19.77
2024-05-09T02:30:38.422Z,20.90
2024-05-09T02:33:09.494Z,19.17
2024-05-09T02:35:37.821Z,22.45
2024-05-09T02:38:04.970Z,22.20
2024-05-09T02:40:37.031Z,21.65
2024-05-09T02:43:10.549Z,21.23
2024-05-09T02:45:38.291Z,21.17
2024-05-09T02:48:06.491Z,20.25
2024-05-09T02:50:38.405Z,20.20
2024-05-09T02:53:06.844Z,19.88
2024-05-09T02:55:34.413Z,20.52
2024-05-09T02:58:01.200Z,20.23
2024-05-09T03:00:38.200Z,21.05
2024-05-09T03:03:09.594Z,19.80
2024-05-09T03:05:38.029Z,20.08
2024-05-09T03:08:08.488Z,20.38
2024-05-09T03:10:37.523Z,21.45
2024-05-09T03:13:06.704Z,21.35
2024-05-09T03:15:36.087Z,21.13
2024-05-09T03:18:03.361Z,22.60
2024-05-09T03:20:35.486Z,21.58
2024-05-09T03:23:04.073Z,22.10
2024-05-09T03:25:31.057Z,22.48
2024-05-09T03:27:57.834Z,21.77
2024-05-09T03:30:31.186Z,22.67
2024-05-09T03:33:11.010Z,23.40
2024-05-09T03:35:38.022Z,22.80
2024-05-09T03:38:05.155Z,20.33
2024-05-09T03:40:31.914Z,21.77
2024-05-09T03:42:58.698Z,22.17
2024-05-09T03:45:25.555Z,21.60
2024-05-09T03:47:52.880Z,22.92
2024-05-09T03:50:29.835Z,21.70
2024-05-09T03:53:01.071Z,21.27
2024-05-09T03:55:28.368Z,20.95
2024-05-09T03:57:55.264Z,20.92
2024-05-09T04:00:31.039Z,21.48
2024-05-09T04:03:06.212Z,22.42
2024-05-09T04:05:37.749Z,19.63
2024-05-09T04:08:05.460Z,21.13
2024-05-09T04:10:34.249Z,21.88
2024-05-09T04:13:02.175Z,20.92
2024-05-09T04:15:29.129Z,23.52
2024-05-09T04:17:56.395Z,21.10
2024-05-09T04:20:34.022Z,21.42
2024-05-09T04:23:11.910Z,22.30
2024-05-09T04:25:41.698Z,19.80
2024-05-09T04:28:08.489Z,20.13
2024-05-09T04:30:39.224Z,20.57
2024-05-09T04:33:10.568Z,21.35
2024-05-09T04:35:39.427Z,21.73
2024-05-09T04:38:09.357Z,22.77
2024-05-09T04:40:37.497Z,19.58
2024-05-09T04:43:05.688Z,21.87
2024-05-09T04:45:33.064Z,25.02
2024-05-09T04:48:00.383Z,22.70
2024-05-09T04:50:36.078Z,21.13
2024-05-09T04:53:10.341Z,22.00
2024-05-09T04:55:38.587Z,20.70
2024-05-09T04:58:07.991Z,19.88
2024-05-09T05:00:37.410Z,19.45
2024-05-09T05:03:07.605Z,21.15
2024-05-09T05:05:41.456Z,20.70
2024-05-09T05:08:14.266Z,20.50
2024-05-09T05:10:41.834Z,19.98
2024-05-09T05:13:08.863Z,18.35
2024-05-09T05:15:35.777Z,20.65
2024-05-09T05:18:02.747Z,19.50
2024-05-09T05:20:33.585Z,21.73
2024-05-09T05:23:01.280Z,19.10
2024-05-09T05:25:30.795Z,22.40
2024-05-09T05:27:57.566Z,19.42
2024-05-09T05:30:29.110Z,18.17
2024-05-09T05:33:01.289Z,17.60
2024-05-09T05:35:28.289Z,18.23
2024-05-09T05:37:55.311Z,17.95
2024-05-09T05:40:28.653Z,17.20
2024-05-09T05:43:05.429Z,17.25
2024-05-09T05:45:32.197Z,19.13
2024-05-09T05:47:59.378Z,16.65
2024-05-09T05:50:32.565Z,16.33
2024-05-09T05:53:03.271Z,17.52
2024-05-09T05:55:30.151Z,15.85
2024-05-09T05:57:56.972Z,17.27
2024-05-09T06:00:34.348Z,16.88
2024-05-09T06:03:05.418Z,15.95
2024-05-09T06:05:33.022Z,15.43
2024-05-09T06:08:00.252Z,17.45
2024-05-09T06:10:37.003Z,16.37
2024-05-09T06:13:06.686Z,16.05
2024-05-09T06:15:36.241Z,17.67
2024-05-09T06:18:05.771Z,15.73
2024-05-09T06:20:36.492Z,16.23
2024-05-09T06:23:07.820Z,16.33
2024-05-09T06:25:35.756Z,15.38
2024-05-09T06:28:06.720Z,14.93
2024-05-09T06:30:39.785Z,15.57
2024-05-09T06:33:11.826Z,15.88
2024-05-09T06:35:40.831Z,14.97
2024-05-09T06:38:08.274Z,15.80
2024-05-09T06:40:38.446Z,14.75
2024-05-09T06:43:10.958Z,16.67
2024-05-09T06:45:49.003Z,14.60
2024-05-09T06:48:18.085Z,14.80
2024-05-09T06:50:45.457Z,16.70
2024-05-09T06:53:14.524Z,15.05
2024-05-09T06:55:45.038Z,15.63
2024-05-09T06:58:12.025Z,15.10
2024-05-09T07:00:42.357Z,15.90
2024-05-09T07:03:10.787Z,14.65
2024-05-09T07:05:38.532Z,14.32
2024-05-09T07:08:06.902Z,13.60
2024-05-09T07:10:36.997Z,14.93
2024-05-09T07:13:08.198Z,16.87
2024-05-09T07:15:34.976Z,14.93
2024-05-09T07:18:08.446Z,15.35
2024-05-09T07:20:35.438Z,13.98
2024-05-09T07:23:02.387Z,13.93
2024-05-09T07:25:29.985Z,14.47
2024-05-09T07:27:59.048Z,14.40
2024-05-09T07:30:31.081Z,13.48
2024-05-09T07:33:01.631Z,15.98
2024-05-09T07:35:32.181Z,14.88
2024-05-09T07:38:00.070Z,14.50
2024-05-09T07:40:34.611Z,14.77
2024-05-09T07:43:09.601Z,13.50
2024-05-09T07:45:48.361Z,14.93
2024-05-09T07:52:39.246Z,13.30
2024-05-09T07:53:48.011Z,14.10
2024-05-09T07:56:19.709Z,13.95
2024-05-09T07:58:50.005Z,12.55
2024-05-09T08:01:17.145Z,12.95
2024-05-09T08:03:45.293Z,12.53
2024-05-09T08:06:15.105Z,12.38
2024-05-09T08:08:42.075Z,12.23
2024-05-09T08:11:08.889Z,12.38
2024-05-09T08:13:35.774Z,12.52
2024-05-09T08:16:02.711Z,12.77
2024-05-09T08:18:29.699Z,12.70
2024-05-09T08:20:58.642Z,13.27
2024-05-09T08:23:28.342Z,11.82
2024-05-09T08:25:55.237Z,12.63
2024-05-09T08:28:22.190Z,12.77
2024-05-09T08:31:09.494Z,11.20
2024-05-09T08:33:37.086Z,11.15
2024-05-09T08:36:07.046Z,10.95
2024-05-09T08:38:36.376Z,12.10
2024-05-09T08:41:04.455Z,10.80
2024-05-09T08:43:31.357Z,10.60
2024-05-09T08:45:59.395Z,11.25
2024-05-09T08:48:26.827Z,12.70
2024-05-09T08:50:53.925Z,11.10
2024-05-09T08:53:21.118Z,11.17
2024-05-09T08:55:51.522Z,10.20
2024-05-09T08:58:19.068Z,12.15
2024-05-09T09:00:46.830Z,10.63
2024-05-09T09:03:17.537Z,10.32
2024-05-09T09:05:53.556Z,11.10
2024-05-09T09:08:21.536Z,11.73
2024-05-09T09:10:57.701Z,10.82
2024-05-09T09:13:27.180Z,10.98
2024-05-09T09:15:54.449Z,10.90
2024-05-09T09:18:25.112Z,11.30
2024-05-09T09:20:54.944Z,10.40
2024-05-09T09:23:22.375Z,10.02
2024-05-09T09:25:52.142Z,10.27
2024-05-09T09:28:23.168Z,9.70
2024-05-09T09:30:50.329Z,10.27
2024-05-09T09:33:18.212Z,9.73
2024-05-09T09:35:58.634Z,10.05
2024-05-09T09:39:11.846Z,10.48
2024-05-09T09:45:13.410Z,9.23
2024-05-09T09:54:39.725Z,9.23
2024-05-09T09:57:08.355Z,9.50
2024-05-09T09:59:39.176Z,8.60
2024-05-09T10:05:47.075Z,8.32
2024-05-09T10:08:16.682Z,9.20
2024-05-09T10:10:46.859Z,8.45
2024-05-09T10:13:14.110Z,8.47
2024-05-09T10:15:46.660Z,8.02
2024-05-09T10:18:14.216Z,8.10
2024-05-09T10:20:45.671Z,9.00
2024-05-09T10:23:26.384Z,9.60
2024-05-09T10:25:57.888Z,8.33
2024-05-09T10:28:27.887Z,9.20
2024-05-09T10:31:08.679Z,8.07
2024-05-09T10:33:37.330Z,7.50
2024-05-09T10:43:22.415Z,9.45
2024-05-09T10:45:49.865Z,7.55
2024-05-09T10:48:18.996Z,7.65
2024-05-09T10:50:49.142Z,8.55
2024-05-09T10:53:20.331Z,8.83
2024-05-09T10:55:56.791Z,9.48
2024-05-09T10:58:23.829Z,7.45
2024-05-09T11:01:04.339Z,8.70
2024-05-09T11:03:56.701Z,7.72
2024-05-09T11:06:35.190Z,8.63
2024-05-09T11:09:05.133Z,9.10
2024-05-09T11:11:32.764Z,8.77
2024-05-09T11:13:59.642Z,7.75
2024-05-09T11:16:31.879Z,8.05
2024-05-09T11:19:02.210Z,7.30
2024-05-09T11:21:29.517Z,8.48
2024-05-09T11:23:59.284Z,7.70
2024-05-09T11:26:33.235Z,7.18
2024-05-09T11:29:00.419Z,7.18
2024-05-09T11:31:30.658Z,8.17
2024-05-09T11:33:57.731Z,8.32
2024-05-09T11:36:26.705Z,7.68
2024-05-09T11:38:53.676Z,7.78
2024-05-09T11:41:20.619Z,7.20
2024-05-09T11:43:56.034Z,7.30
2024-05-09T11:46:32.709Z,8.63
2024-05-09T11:49:15.342Z,7.10
2024-05-09T11:59:20.748Z,7.77
2024-05-09T12:01:59.357Z,8.65
2024-05-09T12:04:31.120Z,7.82
2024-05-09T12:06:58.527Z,7.28
2024-05-09T12:09:25.508Z,8.13
2024-05-09T12:11:52.514Z,8.00
2024-05-09T12:14:21.947Z,7.50
2024-05-09T12:16:48.893Z,7.95
2024-05-09T12:19:18.880Z,7.35
2024-05-09T12:21:45.906Z,7.22
2024-05-09T12:24:15.196Z,7.07
2024-05-09T12:26:43.886Z,7.68
2024-05-09T12:29:11.144Z,8.85
2024-05-09T12:31:40.675Z,8.80
2024-05-09T12:34:07.659Z,8.00
2024-05-09T12:36:34.775Z,7.77
2024-05-09T12:39:03.475Z,6.88
2024-05-09T12:41:32.908Z,6.90
2024-05-09T12:43:59.867Z,7.35
2024-05-09T12:46:27.299Z,7.53
2024-05-09T12:48:58.189Z,7.30
2024-05-09T12:51:25.384Z,8.30
2024-05-09T12:53:52.215Z,7.45
2024-05-09T12:56:19.205Z,7.47
2024-05-09T12:58:46.303Z,7.10
2024-05-09T13:01:13.239Z,7.30
2024-05-09T13:03:40.311Z,7.15
2024-05-09T13:06:10.116Z,8.50
2024-05-09T13:08:36.986Z,7.75
2024-05-09T13:11:03.853Z,7.60
2024-05-09T13:13:30.673Z,10.10
2024-05-09T13:15:57.526Z,8.07
2024-05-09T13:18:24.548Z,7.88
2024-05-09T13:20:51.391Z,9.70
2024-05-09T13:23:20.755Z,7.80
2024-05-09T13:25:47.522Z,7.60
2024-05-09T13:28:14.554Z,8.90
2024-05-09T13:30:42.359Z,7.95
2024-05-09T13:33:11.021Z,7.85
2024-05-09T13:35:38.747Z,7.70
2024-05-09T13:38:05.983Z,7.27
2024-05-09T13:40:36.520Z,7.60
2024-05-09T13:43:04.081Z,7.28
2024-05-09T13:45:31.177Z,8.10
2024-05-09T13:47:58.288Z,7.13
2024-05-09T13:50:33.201Z,7.40
2024-05-09T13:53:02.931Z,7.80
2024-05-09T13:55:29.762Z,7.97
2024-05-09T13:57:59.398Z,8.18
2024-05-09T14:00:38.431Z,7.15
2024-05-09T14:03:12.061Z,8.20
2024-05-09T14:05:39.270Z,7.55
2024-05-09T14:08:09.596Z,8.32
2024-05-09T14:10:36.634Z,7.90
2024-05-09T14:13:06.073Z,7.60
2024-05-09T14:15:35.319Z,8.30
2024-05-09T14:18:02.551Z,7.68
2024-05-09T14:20:31.998Z,8.23
2024-05-09T14:22:59.769Z,7.55
2024-05-09T14:25:29.210Z,7.47
2024-05-09T14:27:59.651Z,8.00
2024-05-09T14:30:36.003Z,7.03
2024-05-09T14:33:09.122Z,7.70
2024-05-09T14:35:36.874Z,7.47
2024-05-09T14:38:04.159Z,8.30
2024-05-09T14:40:40.395Z,7.50
2024-05-09T14:43:10.773Z,7.55
2024-05-09T14:45:40.906Z,6.70
2024-05-09T14:48:08.855Z,7.85
2024-05-09T14:50:41.103Z,7.40
2024-05-09T14:54:11.235Z,8.53
2024-05-09T14:56:41.863Z,7.38
2024-05-09T14:59:08.596Z,7.88
2024-05-09T15:01:37.986Z,7.47
2024-05-09T15:04:05.208Z,6.70
2024-05-09T15:06:32.424Z,7.47
2024-05-09T15:08:59.686Z,7.60
2024-05-09T15:11:26.722Z,7.40
2024-05-09T15:13:53.976Z,7.45
2024-05-09T15:16:21.034Z,6.65
2024-05-09T15:18:50.970Z,7.27
2024-05-09T15:21:18.007Z,7.22
2024-05-09T15:23:44.906Z,7.97
2024-05-09T15:26:11.896Z,7.63
2024-05-09T15:28:40.408Z,6.75
2024-05-09T15:31:07.165Z,7.33
2024-05-09T15:33:34.050Z,9.02
2024-05-09T15:36:03.856Z,7.60
2024-05-09T15:38:30.762Z,8.35
2024-05-09T15:40:57.510Z,8.80
2024-05-09T15:43:27.143Z,7.40
2024-05-09T15:45:55.190Z,6.97
2024-05-09T15:48:25.221Z,7.30
2024-05-09T15:50:52.127Z,7.50
2024-05-09T15:53:21.742Z,7.57
2024-05-09T15:55:48.598Z,7.53
2024-05-09T15:58:15.551Z,7.38
2024-05-09T16:15:40.872Z,8.27
2024-05-09T16:18:14.721Z,8.27
2024-05-09T16:20:57.614Z,8.55
2024-05-09T16:23:33.102Z,7.93
2024-05-09T16:25:59.962Z,8.67
2024-05-09T16:28:27.238Z,6.93
2024-05-09T16:30:54.210Z,6.90
2024-05-09T16:33:24.015Z,8.50
2024-05-09T16:35:51.035Z,7.30
2024-05-09T16:38:18.124Z,7.73
2024-05-09T16:40:44.992Z,7.20
2024-05-09T16:43:13.292Z,7.43
2024-05-09T16:45:41.957Z,8.05
2024-05-09T16:48:09.440Z,11.52
2024-05-09T16:50:39.169Z,6.90
2024-05-09T16:53:06.793Z,7.18
2024-05-09T16:55:34.394Z,7.82
2024-05-09T16:58:01.991Z,9.07
2024-05-09T17:00:40.778Z,7.40
2024-05-09T17:03:11.600Z,7.87
2024-05-09T17:05:42.972Z,8.43
2024-05-09T17:08:10.175Z,7.55
2024-05-09T17:10:37.818Z,7.40
2024-05-09T17:13:07.165Z,7.68
2024-05-09T17:15:35.500Z,9.83
2024-05-09T17:18:03.992Z,7.90
2024-05-09T17:20:36.322Z,8.20
2024-05-09T17:23:07.070Z,8.88
2024-05-09T17:25:34.347Z,7.97
2024-05-09T17:28:02.422Z,7.60
2024-05-09T17:30:35.072Z,8.45
2024-05-09T17:36:34.667Z,7.95
2024-05-09T17:39:04.492Z,8.00
2024-05-09T17:41:31.547Z,7.23
2024-05-09T17:43:58.625Z,8.55
2024-05-09T17:46:35.174Z,8.85
2024-05-09T17:49:05.213Z,8.32
2024-05-09T17:51:34.532Z,9.15
2024-05-09T17:54:04.089Z,7.40
2024-05-09T17:56:33.793Z,8.30
2024-05-09T17:59:00.779Z,7.75
2024-05-09T18:01:27.781Z,7.65
2024-05-09T18:03:54.939Z,7.70
2024-05-09T18:06:23.882Z,8.37
2024-05-09T18:08:50.761Z,9.90
2024-05-09T18:11:20.643Z,7.93
2024-05-09T18:13:47.786Z,8.00
2024-05-09T18:16:15.048Z,10.02
2024-05-09T18:18:42.101Z,8.87
2024-05-09T18:21:09.027Z,8.07
2024-05-09T18:23:36.328Z,9.73
2024-05-09T18:26:03.395Z,9.40
2024-05-09T18:28:35.642Z,10.20
2024-05-09T18:31:02.533Z,8.27
2024-05-09T18:33:29.767Z,8.00
2024-05-09T18:35:56.908Z,8.60
2024-05-09T18:38:24.002Z,8.30
2024-05-09T18:40:51.067Z,8.85
2024-05-09T18:43:26.360Z,8.97
2024-05-09T18:46:01.013Z,8.15
2024-05-09T18:48:28.098Z,8.15
2024-05-09T18:50:55.229Z,8.55
2024-05-09T18:53:22.308Z,7.97
2024-05-09T18:55:49.227Z,8.80
2024-05-09T18:58:16.674Z,9.02
2024-05-09T19:00:46.025Z,8.35
2024-05-09T19:03:19.151Z,9.18
2024-05-09T19:05:47.184Z,9.32
2024-05-09T19:08:14.629Z,10.03
2024-05-09T19:10:41.923Z,10.43
2024-05-09T19:13:12.179Z,9.07
2024-05-09T19:15:41.636Z,9.00
2024-05-09T19:18:10.088Z,9.68
2024-05-09T19:20:39.972Z,8.57
2024-05-09T19:23:07.501Z,9.18
2024-05-09T19:25:35.672Z,8.90
2024-05-09T19:28:03.701Z,9.52
2024-05-09T19:30:38.468Z,10.60
2024-05-09T19:33:09.835Z,11.13
2024-05-09T19:35:40.286Z,9.50
2024-05-09T19:38:10.314Z,9.85
2024-05-09T19:40:37.457Z,12.18
2024-05-09T19:43:05.912Z,8.77
2024-05-09T19:45:34.427Z,10.47
2024-05-09T19:48:02.558Z,9.82
2024-05-09T19:50:37.366Z,10.75
2024-05-09T19:53:12.415Z,10.52
2024-05-09T19:55:39.657Z,9.85
2024-05-09T19:58:07.909Z,9.27
2024-05-09T20:00:38.151Z,9.90
2024-05-09T20:03:08.249Z,9.95
2024-05-09T20:05:37.122Z,10.15
2024-05-09T20:08:05.153Z,12.98
2024-05-09T20:10:36.706Z,10.63
2024-05-09T20:13:06.669Z,11.00
2024-05-09T20:15:35.869Z,10.23
2024-05-09T20:18:03.800Z,9.80
2024-05-09T20:20:37.577Z,12.60
2024-05-09T20:23:08.488Z,10.33
2024-05-09T20:25:37.907Z,10.80
2024-05-09T20:28:11.478Z,10.32
2024-05-09T20:30:38.524Z,11.90
2024-05-09T20:33:07.278Z,11.60
2024-05-09T20:35:35.565Z,10.57
2024-05-09T20:38:03.503Z,10.52
2024-05-09T20:40:34.927Z,11.60
2024-05-09T20:43:08.349Z,11.63
2024-05-09T20:45:35.646Z,13.63
2024-05-09T20:48:03.071Z,12.67
2024-05-09T20:50:40.670Z,9.63
2024-05-09T20:53:15.404Z,9.55
2024-05-09T20:55:43.625Z,10.38
2024-05-09T20:58:14.205Z,10.82
2024-05-09T21:00:44.166Z,11.67
2024-05-09T21:03:14.030Z,10.32
2024-05-09T21:05:42.151Z,10.52
2024-05-09T21:08:09.191Z,10.60
2024-05-09T21:10:36.847Z,11.23
2024-05-09T21:13:04.879Z,11.70
2024-05-09T21:15:35.347Z,13.02
2024-05-09T21:18:04.681Z,11.93
2024-05-09T21:20:33.210Z,11.07
2024-05-09T21:23:00.630Z,11.95
2024-05-09T21:25:27.593Z,11.30
2024-05-09T21:27:54.762Z,11.60
2024-05-09T21:30:31.963Z,10.30
2024-05-09T21:33:12.268Z,10.85
2024-05-09T21:35:41.139Z,10.75
2024-05-09T21:38:10.835Z,11.10
2024-05-09T21:40:38.319Z,11.52
2024-05-09T21:43:07.267Z,11.02
2024-05-09T21:45:35.204Z,10.73
2024-05-09T21:48:03.602Z,10.35
2024-05-09T21:50:39.368Z,12.37
2024-05-09T21:53:12.489Z,11.23
2024-05-09T21:55:39.844Z,11.13
2024-05-09T21:58:06.697Z,11.07
2024-05-09T22:00:37.573Z,11.85
2024-05-09T22:03:06.423Z,11.20
2024-05-09T22:05:36.331Z,12.40
2024-05-09T22:08:03.406Z,11.75
2024-05-09T22:10:35.040Z,11.35
2024-05-09T22:13:04.031Z,13.13
2024-05-09T22:15:32.367Z,12.33
2024-05-09T22:17:59.379Z,11.02
2024-05-09T22:20:34.465Z,13.15
2024-05-09T22:23:08.481Z,12.02
2024-05-09T22:25:38.161Z,11.25
2024-05-09T22:28:08.030Z,11.53
2024-05-09T22:30:39.748Z,12.43
2024-05-09T22:33:08.150Z,11.60
2024-05-09T22:35:38.036Z,11.75
2024-05-09T22:38:07.852Z,11.43
2024-05-09T22:43:05.269Z,10.80
2024-05-09T22:45:34.703Z,13.35
2024-05-09T22:48:01.897Z,12.15
2024-05-09T22:50:33.137Z,12.82
2024-05-09T22:53:00.475Z,11.27
2024-05-09T22:55:29.959Z,12.38
2024-05-09T22:57:56.880Z,11.80
2024-05-09T23:02:53.435Z,11.82
2024-05-09T23:05:20.596Z,11.93
2024-05-09T23:07:47.531Z,13.38
2024-05-09T23:10:21.220Z,12.80
2024-05-09T23:12:57.140Z,12.73
2024-05-09T23:15:23.860Z,12.80
2024-05-09T23:17:50.752Z,13.53
2024-05-09T23:20:25.932Z,13.50
2024-05-09T23:22:57.046Z,11.93
2024-05-09T23:25:23.868Z,14.50
2024-05-09T23:27:50.813Z,12.30
2024-05-09T23:30:29.222Z,11.70
2024-05-09T23:33:03.981Z,12.13
2024-05-09T23:35:30.926Z,12.73
2024-05-09T23:37:57.770Z,13.13
2024-05-09T23:40:34.945Z,11.90
2024-05-09T23:43:09.298Z,11.43
2024-05-09T23:45:39.340Z,13.48
2024-05-09T23:48:07.066Z,12.15
2024-05-09T23:50:37.283Z,11.73
2024-05-09T23:53:07.219Z,12.18
2024-05-09T23:55:35.277Z,12.77
2024-05-09T23:58:02.162Z,11.07
